Latest Weather Observations for Colpoys Point

IDW60901

Issued at 9:21 pm WST Friday 16 April 2021 (issued every 10 minutes, with the page automatically refreshed every 10 minutes)

About weather observations | Map of Perth area stations | Latest observations for Perth area | Other Formats
Station Details ID: 009255 Name: COLPOYS POINT Lat: -32.23 Lon: 115.70 Height: 3.0 m
Data from the previous 72 hours. | See also: Recent months for locations in Western Australia
Date/Time
WST
Temp
°C
App
Temp
°C
Dew
Point
°C
Rel
Hum
%
Delta-T
°C
Wind Press
QNH
hPa
Press
MSL
hPa
Rain since
9am
mm
Dir  Spd
km/h
Gust
km/h
Spd
kts
Gust
kts
16/09:00pm - - - - - SE 17 20 9 11 - - -
16/08:30pm - - - - - SE 17 19 9 10 - - -
16/08:00pm - - - - - SE 17 19 9 10 - - -
16/07:30pm - - - - - S 15 17 8 9 - - -
16/07:00pm - - - - - S 17 20 9 11 - - -
16/06:30pm - - - - - S 20 26 11 14 - - -
16/06:00pm - - - - - S 20 24 11 13 - - -
16/05:30pm - - - - - S 22 26 12 14 - - -
16/05:00pm - - - - - SSW 24 28 13 15 - - -
16/04:30pm - - - - - SSW 20 22 11 12 - - -
16/04:00pm - - - - - E 19 22 10 12 - - -
16/03:30pm - - - - - E 17 19 9 10 - - -
16/03:00pm - - - - - E 17 19 9 10 - - -
16/02:30pm - - - - - E 7 9 4 5 - - -
16/02:00pm - - - - - E 9 11 5 6 - - -
16/01:30pm - - - - - E 11 13 6 7 - - -
16/01:00pm - - - - - E 9 11 5 6 - - -
16/12:30pm - - - - - E 13 15 7 8 - - -
16/12:00pm - - - - - ENE 15 17 8 9 - - -
16/11:30am - - - - - ENE 13 15 7 8 - - -
16/11:00am - - - - - ENE 19 24 10 13 - - -
16/10:30am - - - - - ENE 20 24 11 13 - - -
16/10:00am - - - - - ENE 22 28 12 15 - - -
16/09:30am - - - - - E 17 20 9 11 - - -
16/09:00am - - - - - E 19 26 10 14 - - -
16/08:30am - - - - - E 13 15 7 8 - - -
16/08:00am - - - - - E 19 20 10 11 - - -
16/07:30am - - - - - E 19 22 10 12 - - -
16/07:00am - - - - - ESE 17 20 9 11 - - -
16/06:30am - - - - - E 17 20 9 11 - - -
16/06:00am - - - - - ESE 15 19 8 10 - - -
16/05:30am - - - - - ESE 15 17 8 9 - - -
16/05:00am - - - - - ESE 13 15 7 8 - - -
16/04:30am - - - - - ESE 19 26 10 14 - - -
16/04:00am - - - - - ESE 17 22 9 12 - - -
16/03:30am - - - - - ESE 20 26 11 14 - - -
16/03:00am - - - - - ESE 22 28 12 15 - - -
16/02:30am - - - - - SE 17 20 9 11 - - -
16/02:00am - - - - - SE 15 17 8 9 - - -
16/01:30am - - - - - ESE 13 15 7 8 - - -
16/01:00am - - - - - ESE 15 15 8 8 - - -
16/12:30am - - - - - ESE 17 19 9 10 - - -
16/12:00am - - - - - ESE 17 19 9 10 - - -
 
Date/Time
WST
Temp
°C
App
Temp
°C
Dew
Point
°C
Rel
Hum
%
Delta-T
°C
Wind Press
QNH
hPa
Press
MSL
hPa
Rain since
9am
mm
Dir  Spd
km/h
Gust
km/h
Spd
kts
Gust
kts
15/11:30pm - - - - - ESE 15 17 8 9 - - -
15/11:00pm - - - - - SE 17 19 9 10 - - -
15/10:30pm - - - - - SE 15 17 8 9 - - -
15/10:00pm - - - - - SSE 15 19 8 10 - - -
15/09:30pm - - - - - SSE 17 19 9 10 - - -
15/09:00pm - - - - - SSE 19 20 10 11 - - -
15/08:30pm - - - - - SSE 19 22 10 12 - - -
15/08:00pm - - - - - SSE 19 22 10 12 - - -
15/07:30pm - - - - - S 22 26 12 14 - - -
15/07:00pm - - - - - SSW 28 33 15 18 - - -
15/06:30pm - - - - - SSW 32 37 17 20 - - -
15/06:00pm - - - - - SSW 30 37 16 20 - - -
15/05:30pm - - - - - SSW 32 37 17 20 - - -
15/05:00pm - - - - - SSW 30 35 16 19 - - -
15/04:30pm - - - - - SSW 32 37 17 20 - - -
15/04:00pm - - - - - SSW 28 35 15 19 - - -
15/03:30pm - - - - - SW 24 30 13 16 - - -
15/03:00pm - - - - - SW 20 28 11 15 - - -
15/02:30pm - - - - - SW 22 28 12 15 - - -
15/02:00pm - - - - - SW 20 28 11 15 - - -
15/01:30pm - - - - - SW 20 26 11 14 - - -
15/01:00pm - - - - - SW 19 24 10 13 - - -
15/12:30pm - - - - - SSE 7 11 4 6 - - -
15/12:00pm - - - - - SE 7 9 4 5 - - -
15/11:30am - - - - - CALM 0 7 0 4 - - -
15/11:00am - - - - - ESE 7 7 4 4 - - -
15/10:30am - - - - - ESE 13 17 7 9 - - -
15/10:00am - - - - - ESE 13 19 7 10 - - -
15/09:30am - - - - - ESE 13 17 7 9 - - -
15/09:00am - - - - - SE 11 13 6 7 - - -
15/08:30am - - - - - SE 11 13 6 7 - - -
15/08:00am - - - - - SE 13 15 7 8 - - -
15/07:30am - - - - - ESE 13 15 7 8 - - -
15/07:00am - - - - - SE 13 17 7 9 - - -
15/06:30am - - - - - SE 13 15 7 8 - - -
15/06:00am - - - - - E 17 20 9 11 - - -
15/05:30am - - - - - E 20 26 11 14 - - -
15/05:00am - - - - - E 19 22 10 12 - - -
15/04:30am - - - - - ESE 20 24 11 13 - - -
15/04:00am - - - - - ESE 17 20 9 11 - - -
15/03:30am - - - - - ESE 19 22 10 12 - - -
15/03:00am - - - - - SE 22 28 12 15 - - -
15/02:30am - - - - - SE 24 28 13 15 - - -
15/02:00am - - - - - SE 24 30 13 16 - - -
15/01:30am - - - - - SSE 24 28 13 15 - - -
15/01:00am - - - - - SE 20 24 11 13 - - -
15/12:30am - - - - - SE 22 26 12 14 - - -
15/12:00am - - - - - SSE 20 24 11 13 - - -
 
Date/Time
WST
Temp
°C
App
Temp
°C
Dew
Point
°C
Rel
Hum
%
Delta-T
°C
Wind Press
QNH
hPa
Press
MSL
hPa
Rain since
9am
mm
Dir  Spd
km/h
Gust
km/h
Spd
kts
Gust
kts
14/11:30pm - - - - - SSE 20 24 11 13 - - -
14/11:00pm - - - - - SSE 20 24 11 13 - - -
14/10:30pm - - - - - SE 19 22 10 12 - - -
14/10:00pm - - - - - SSE 19 22 10 12 - - -
14/09:30pm - - - - - SSE 19 24 10 13 - - -
14/09:00pm - - - - - SSE 22 30 12 16 - - -
14/08:30pm - - - - - S 30 33 16 18 - - -
14/08:00pm - - - - - S 30 33 16 18 - - -
14/07:30pm - - - - - S 30 35 16 19 - - -
14/07:00pm - - - - - S 32 35 17 19 - - -
14/06:30pm - - - - - SSW 32 37 17 20 - - -
14/06:00pm - - - - - SSW 32 37 17 20 - - -
14/05:30pm - - - - - SSW 30 35 16 19 - - -
14/05:00pm - - - - - SSW 32 39 17 21 - - -
14/04:30pm - - - - - SSW 33 39 18 21 - - -
14/04:00pm - - - - - SSW 28 32 15 17 - - -
14/03:30pm - - - - - SSW 30 35 16 19 - - -
14/03:00pm - - - - - SSW 26 30 14 16 - - -
14/02:30pm - - - - - SW 24 28 13 15 - - -
14/02:00pm - - - - - SW 22 28 12 15 - - -
14/01:30pm - - - - - WSW 13 19 7 10 - - -
14/01:00pm - - - - - SW 15 22 8 12 - - -
14/12:30pm - - - - - E 11 15 6 8 - - -
14/12:00pm - - - - - E 6 7 3 4 - - -
14/11:30am - - - - - E 4 7 2 4 - - -
14/11:00am - - - - - E 7 9 4 5 - - -
14/10:30am - - - - - E 9 11 5 6 - - -
14/10:00am - - - - - E 9 13 5 7 - - -
14/09:30am - - - - - E 13 15 7 8 - - -
14/09:00am - - - - - E 11 15 6 8 - - -
14/08:30am - - - - - E 13 15 7 8 - - -
14/08:00am - - - - - E 13 17 7 9 - - -
14/07:30am - - - - - E 15 17 8 9 - - -
14/07:00am - - - - - ESE 13 15 7 8 - - -
14/06:30am - - - - - ESE 15 17 8 9 - - -
14/06:00am - - - - - E 15 17 8 9 - - -
14/05:30am - - - - - E 13 17 7 9 - - -
14/05:00am - - - - - E 17 19 9 10 - - -
14/04:30am - - - - - E 15 17 8 9 - - -
14/04:00am - - - - - ESE 15 17 8 9 - - -
14/03:30am - - - - - E 17 19 9 10 - - -
14/03:00am - - - - - E 22 28 12 15 - - -
14/02:30am - - - - - E 20 26 11 14 - - -
14/02:00am - - - - - ESE 20 26 11 14 - - -
14/01:30am - - - - - SE 20 24 11 13 - - -
14/01:00am - - - - - ESE 20 26 11 14 - - -
14/12:30am - - - - - SE 22 28 12 15 - - -
14/12:00am - - - - - SE 19 24 10 13 - - -
 
Date/Time
WST
Temp
°C
App
Temp
°C
Dew
Point
°C
Rel
Hum
%
Delta-T
°C
Wind Press
QNH
hPa
Press
MSL
hPa
Rain since
9am
mm
Dir  Spd
km/h
Gust
km/h
Spd
kts
Gust
kts
13/11:30pm - - - - - SE 20 26 11 14 - - -
13/11:00pm - - - - - SE 24 30 13 16 - - -
13/10:30pm - - - - - SSE 24 30 13 16 - - -
13/10:00pm - - - - - SSE 28 32 15 17 - - -
13/09:30pm - - - - - SSE 28 33 15 18 - - -

Latest Capital City Observations: Canberra | Sydney | Melbourne | Brisbane | Adelaide | Perth | Hobart | Darwin

Other formats

Comma delimited format used in spreadsheet applications
http://www.bom.gov.au/fwo/IDW60901/IDW60901.99255.axf

JavaScript Object Notation format (JSON) in row-major order
http://www.bom.gov.au/fwo/IDW60901/IDW60901.99255.json

Data quality

Most of these data are generated automatically and are frequently updated. Quality checks on data are not normally performed. It is possible for incorrect values to appear. Refer to information at About Latest Weather Observations and please check the disclaimer before using these data.